Time;durP1;ratioP1;P1;durP2;ratioP2;P2;SDS_P1;SDS_P2;PMS_P1;PMS_P2;Temp;Humidity;BMP_temperature;BMP_pressure;BME280_temperature;BME280_humidity;BME280_pressure;Samples;Min_cycle;Max_cycle;Signal;HPM_P1;HPM_P2
2021/09/24 00:02:23;;;;;;;89.93;84.10;;;;;;;11.29;71.50;98756.25;5029084;28;20458;-71
2021/09/24 00:04:51;;;;;;;68.67;64.03;;;;;;;11.30;72.16;98757.94;5024890;28;20463;-71
2021/09/24 00:07:19;;;;;;;87.00;81.33;;;;;;;11.31;73.08;98754.25;5025801;28;20462;-71
2021/09/24 00:09:47;;;;;;;86.87;81.20;;;;;;;11.25;71.82;98754.91;5042265;28;20474;-71
2021/09/24 00:12:15;;;;;;;76.13;71.07;;;;;;;11.29;72.21;98768.88;5028455;28;20459;-71
2021/09/24 00:14:44;;;;;;;60.83;56.63;;;;;;;11.21;71.20;98772.34;5018793;28;20799;-71
2021/09/24 00:17:12;;;;;;;74.90;69.90;;;;;;;11.31;72.30;98785.66;5025405;28;20464;-71
2021/09/24 00:19:42;;;;;;;56.17;52.27;;;;;;;11.21;72.76;98775.03;5023430;28;20455;-71
2021/09/24 00:22:10;;;;;;;61.10;56.93;;;;;;;11.16;70.11;98777.34;5028072;28;20450;-71
2021/09/24 00:24:38;;;;;;;79.83;74.53;;;;;;;11.18;71.41;98786.94;5017942;28;20813;-71
2021/09/24 00:27:06;;;;;;;73.97;69.00;;;;;;;11.11;70.66;98787.72;5014632;28;20976;-71
2021/09/24 00:29:34;;;;;;;83.83;78.37;;;;;;;11.08;70.20;98798.78;5044008;28;20793;-71
2021/09/24 00:32:02;;;;;;;91.53;85.63;;;;;;;11.06;71.01;98795.41;5025175;28;20480;-71
2021/09/24 00:34:31;;;;;;;61.07;56.87;;;;;;;11.11;71.72;98798.47;5027115;28;20466;-71
2021/09/24 00:37:00;;;;;;;95.33;89.23;;;;;;;11.02;71.18;98789.50;5028090;28;20454;-71
2021/09/24 00:39:28;;;;;;;81.03;75.67;;;;;;;11.10;70.86;98816.44;5014663;28;21100;-71
2021/09/24 00:41:57;;;;;;;68.47;63.87;;;;;;;11.05;70.52;98801.78;5025934;28;20811;-71
2021/09/24 00:44:27;;;;;;;68.33;63.77;;;;;;;11.08;71.12;98822.97;5023247;28;20492;-71
2021/09/24 00:46:55;;;;;;;63.97;59.63;;;;;;;11.08;71.91;98804.16;5028354;28;20435;-71
2021/09/24 00:49:23;;;;;;;75.30;70.33;;;;;;;11.09;71.23;98816.59;5027847;28;20241;-71
2021/09/24 00:51:52;;;;;;;75.03;70.07;;;;;;;11.07;71.50;98823.97;5026409;28;20466;-71
2021/09/24 00:54:21;;;;;;;102.53;96.03;;;;;;;11.07;71.94;98834.69;5028143;28;20985;-71
2021/09/24 00:56:52;;;;;;;115.60;108.40;;;;;;;11.02;72.27;98836.97;5026022;28;20466;-71
2021/09/24 00:59:20;;;;;;;71.23;66.47;;;;;;;11.01;70.93;98840.66;5028112;28;20453;-71
2021/09/24 01:01:48;;;;;;;105.13;98.53;;;;;;;11.00;70.59;98837.13;5025887;28;20471;-71
2021/09/24 01:04:16;;;;;;;83.30;77.87;;;;;;;10.98;70.54;98843.66;5027813;28;20517;-71
2021/09/24 01:06:45;;;;;;;106.73;99.97;;;;;;;10.99;71.08;98848.88;5031613;28;20467;-71
2021/09/24 01:09:13;;;;;;;79.63;74.40;;;;;;;10.97;71.54;98867.00;5020643;28;20447;-71
2021/09/24 01:11:42;;;;;;;86.57;80.97;;;;;;;10.97;72.32;98858.94;5025976;28;20496;-71
2021/09/24 01:14:11;;;;;;;66.20;61.70;;;;;;;10.92;70.80;98863.91;5026651;28;20494;-71
2021/09/24 01:16:39;;;;;;;91.43;84.37;;;;;;;10.92;71.11;98874.66;5022040;28;20461;-71
2021/09/24 01:19:07;;;;;;;86.97;81.27;;;;;;;10.92;70.98;98879.19;5028142;28;20454;-71
2021/09/24 01:21:41;;;;;;;100.90;94.43;;;;;;;10.91;70.88;98874.81;5026756;28;20831;-71
2021/09/24 01:24:09;;;;;;;97.73;91.53;;;;;;;10.93;71.01;98879.03;5027761;28;20481;-71
2021/09/24 01:26:46;;;;;;;109.30;102.43;;;;;;;10.95;70.92;98889.63;5031557;28;20461;-71
2021/09/24 01:29:14;;;;;;;89.07;83.30;;;;;;;10.90;70.79;98884.72;5039069;28;20469;-71
2021/09/24 01:31:43;;;;;;;105.40;98.77;;;;;;;11.00;70.74;98890.00;5020769;28;20458;-70
2021/09/24 01:34:11;;;;;;;76.10;71.07;;;;;;;10.89;69.43;98902.66;5030889;28;20441;-71
2021/09/24 01:36:41;;;;;;;96.57;90.40;;;;;;;10.87;70.55;98899.28;5031322;28;20431;-71
2021/09/24 01:39:11;;;;;;;111.87;104.87;;;;;;;10.96;69.95;98896.69;5031147;28;20460;-70
2021/09/24 01:41:41;;;;;;;87.10;81.50;;;;;;;10.97;70.27;98909.13;5026193;28;20465;-71
2021/09/24 01:44:09;;;;;;;97.83;91.63;;;;;;;10.97;70.94;98895.69;5030003;28;20494;-71
2021/09/24 01:46:38;;;;;;;99.33;93.07;;;;;;;10.99;71.00;98915.19;5028988;28;20434;-71
2021/09/24 01:49:07;;;;;;;100.60;94.23;;;;;;;11.00;70.41;98908.81;5030875;28;20463;-71
2021/09/24 01:51:37;;;;;;;94.07;88.10;;;;;;;10.92;69.45;98906.88;5030726;28;20855;-70
2021/09/24 01:54:07;;;;;;;74.80;69.87;;;;;;;10.97;69.53;98915.34;5027853;28;20941;-70
2021/09/24 01:56:35;;;;;;;58.53;54.50;;;;;;;11.00;69.45;98931.13;5031253;28;20488;-70
2021/09/24 01:59:04;;;;;;;78.10;72.97;;;;;;;10.99;68.97;98931.28;5029313;28;20462;-70
2021/09/24 02:01:32;;;;;;;79.10;73.90;;;;;;;10.99;69.24;98933.97;5029328;28;20572;-70
2021/09/24 02:04:02;;;;;;;100.13;93.80;;;;;;;11.01;68.37;98932.84;5030522;28;20522;-70
2021/09/24 02:06:30;;;;;;;102.93;96.47;;;;;;;11.10;68.90;98936.47;5030551;28;20445;-70
2021/09/24 02:08:58;;;;;;;89.33;83.57;;;;;;;11.08;69.61;98935.78;5030707;28;20857;-70
2021/09/24 02:11:28;;;;;;;87.70;82.07;;;;;;;11.04;69.32;98937.09;5023947;28;20467;-70
2021/09/24 02:13:56;;;;;;;75.33;70.40;;;;;;;11.10;69.45;98939.16;5044898;28;20462;-70
2021/09/24 02:16:24;;;;;;;73.83;68.93;;;;;;;11.08;67.09;98955.44;5030576;28;20470;-70
2021/09/24 02:18:52;;;;;;;70.97;66.27;;;;;;;11.04;69.22;98939.78;5031015;28;20454;-70
2021/09/24 02:21:21;;;;;;;56.50;52.60;;;;;;;10.78;67.46;98905.56;5022086;28;20975;-71
2021/09/24 02:23:49;;;;;;;91.50;85.63;;;;;;;11.00;68.14;98938.34;5024282;28;20481;-70
2021/09/24 02:26:17;;;;;;;89.57;83.83;;;;;;;11.01;67.95;98951.63;5030177;28;20825;-70
2021/09/24 02:29:06;;;;;;;96.07;89.93;;;;;;;10.98;66.73;98964.53;5018881;28;20929;-70
2021/09/24 02:31:35;;;;;;;70.50;65.80;;;;;;;10.88;66.33;98953.84;5020411;28;20456;-70
2021/09/24 02:34:03;;;;;;;91.63;85.73;;;;;;;10.94;68.55;98955.91;5029742;28;20529;-70
2021/09/24 02:36:32;;;;;;;83.63;78.23;;;;;;;10.91;67.66;98968.81;5027572;28;20477;-70
2021/09/24 02:39:00;;;;;;;74.67;69.73;;;;;;;10.94;68.36;98969.34;5029725;28;20475;-70
2021/09/24 02:41:28;;;;;;;62.77;58.47;;;;;;;10.96;67.64;98977.25;5029137;28;20456;-70
2021/09/24 02:43:56;;;;;;;60.80;56.63;;;;;;;10.94;68.30;98968.50;5043393;28;20578;-70
2021/09/24 02:46:26;;;;;;;60.90;56.73;;;;;;;10.80;68.32;98948.38;5029832;28;20462;-70
2021/09/24 02:48:54;;;;;;;59.87;55.77;;;;;;;10.89;67.71;98980.53;5030148;28;20947;-70
2021/09/24 02:51:23;;;;;;;61.93;57.73;;;;;;;10.90;68.01;98967.97;5027221;28;20822;-70
2021/09/24 02:53:51;;;;;;;55.50;51.63;;;;;;;10.79;66.35;98974.41;5029768;28;20522;-70
2021/09/24 02:56:19;;;;;;;71.60;66.77;;;;;;;10.82;65.63;98979.47;5020237;28;20451;-70
2021/09/24 02:58:47;;;;;;;48.40;45.03;;;;;;;10.84;66.35;98984.69;5029701;28;20470;-70
2021/09/24 03:01:15;;;;;;;50.40;46.90;;;;;;;10.83;67.69;98978.47;5028202;28;20950;-70
2021/09/24 03:03:45;;;;;;;67.83;63.27;;;;;;;10.89;67.67;98995.81;5028987;28;20833;-70
2021/09/24 03:06:13;;;;;;;50.33;46.77;;;;;;;10.93;67.53;98993.69;5028779;28;20882;-70
2021/09/24 03:08:41;;;;;;;70.10;65.40;;;;;;;10.85;66.59;98997.13;5028190;28;20468;-71
2021/09/24 03:11:09;;;;;;;54.10;50.37;;;;;;;10.78;66.96;98990.66;5028720;28;20475;-70
2021/09/24 03:13:37;;;;;;;70.13;65.47;;;;;;;10.80;65.56;98989.50;5027963;28;20251;-70
2021/09/24 03:16:06;;;;;;;70.97;66.23;;;;;;;10.75;66.55;98982.91;5029044;28;20445;-71
2021/09/24 03:18:34;;;;;;;56.27;52.40;;;;;;;10.48;65.93;98951.50;5028687;28;20457;-70
2021/09/24 03:21:03;;;;;;;50.73;47.17;;;;;;;10.77;67.43;99011.28;5028549;28;20454;-70
2021/09/24 03:23:31;;;;;;;51.37;47.80;;;;;;;10.69;65.81;99008.47;5028525;28;20466;-70
2021/09/24 03:25:59;;;;;;;54.17;50.40;;;;;;;10.72;68.08;99007.38;5028830;28;20480;-70
2021/09/24 03:28:28;;;;;;;57.17;53.20;;;;;;;10.71;67.41;99005.63;5028819;28;20454;-71
2021/09/24 03:30:56;;;;;;;51.90;48.33;;;;;;;10.70;67.10;99020.06;5028838;28;20466;-70
2021/09/24 03:33:24;;;;;;;50.73;47.20;;;;;;;10.65;65.97;99020.50;5028310;28;20452;-70
2021/09/24 03:35:52;;;;;;;51.37;47.80;;;;;;;10.70;67.52;99031.63;5029056;28;20810;-71
2021/09/24 03:38:21;;;;;;;72.07;66.77;;;;;;;10.65;65.65;99041.97;5028321;28;20463;-71
2021/09/24 03:40:50;;;;;;;50.40;46.87;;;;;;;10.60;66.66;99036.22;5030448;28;20823;-71
2021/09/24 03:43:18;;;;;;;67.53;62.97;;;;;;;10.48;66.82;99021.28;5027527;28;20456;-71
2021/09/24 03:45:46;;;;;;;51.03;47.47;;;;;;;10.55;67.36;99038.50;5028799;28;20475;-71
2021/09/24 03:48:14;;;;;;;55.63;51.77;;;;;;;10.61;67.27;99042.44;5026482;28;20763;-71
2021/09/24 03:50:42;;;;;;;69.37;64.73;;;;;;;10.52;65.77;99052.22;5023142;28;20457;-71
2021/09/24 03:53:11;;;;;;;68.83;64.20;;;;;;;10.44;65.89;99049.41;5026389;28;20478;-71
2021/09/24 03:55:40;;;;;;;73.67;68.80;;;;;;;10.50;65.29;99067.59;5021985;28;20468;-71
2021/09/24 03:58:08;;;;;;;58.90;54.87;;;;;;;10.35;66.75;99047.56;5025603;28;20444;-71
2021/09/24 04:00:36;;;;;;;52.10;48.50;;;;;;;10.48;64.48;99074.97;5020326;28;20459;-71
2021/09/24 04:03:05;;;;;;;77.40;72.33;;;;;;;10.45;64.99;99076.09;5025936;28;20456;-71
2021/09/24 04:05:33;;;;;;;50.63;47.07;;;;;;;10.44;65.40;99079.78;5027370;28;20845;-71
2021/09/24 04:08:01;;;;;;;74.70;69.77;;;;;;;10.48;66.25;99086.53;5043584;28;20679;-71
2021/09/24 04:10:29;;;;;;;71.03;66.27;;;;;;;10.42;65.23;99097.84;5024955;28;20473;-71
2021/09/24 04:12:59;;;;;;;65.20;60.80;;;;;;;10.42;65.90;99102.38;5023508;28;20967;-71
2021/09/24 04:15:27;;;;;;;48.20;44.83;;;;;;;10.44;67.06;99105.75;5028523;28;20493;-71
2021/09/24 04:17:55;;;;;;;49.70;46.23;;;;;;;10.45;66.97;99107.47;5026676;28;20948;-71
2021/09/24 04:20:23;;;;;;;46.83;43.57;;;;;;;10.30;65.94;99100.81;5042483;28;20483;-70
2021/09/24 04:23:03;;;;;;;58.03;54.07;;;;;;;10.27;66.10;99118.91;5026831;28;21009;-71
2021/09/24 04:25:31;;;;;;;60.93;56.67;;;;;;;10.24;65.27;99118.34;5026042;28;20488;-71
2021/09/24 04:28:00;;;;;;;59.70;55.63;;;;;;;10.24;66.41;99121.88;5027968;28;20580;-71
2021/09/24 04:30:29;;;;;;;51.07;47.50;;;;;;;10.26;66.99;99148.56;5028504;28;20471;-71
2021/09/24 04:32:57;;;;;;;57.20;53.30;;;;;;;10.22;66.25;99141.78;5027875;28;20951;-71
2021/09/24 04:35:25;;;;;;;64.80;60.43;;;;;;;10.18;64.10;99140.34;5025958;28;20516;-72
2021/09/24 04:37:53;;;;;;;69.97;65.27;;;;;;;10.18;65.93;99149.25;5025244;28;20451;-72
2021/09/24 04:40:21;;;;;;;65.67;61.20;;;;;;;10.06;65.63;99141.44;5026702;28;20432;-71
2021/09/24 04:42:49;;;;;;;72.97;68.10;;;;;;;10.06;64.92;99153.03;5025126;28;20463;-70
2021/09/24 04:45:19;;;;;;;74.90;69.93;;;;;;;9.99;64.52;99151.91;5024680;28;20498;-70
2021/09/24 04:47:47;;;;;;;73.93;68.97;;;;;;;9.90;65.57;99137.50;5025909;28;20453;-70
2021/09/24 04:50:15;;;;;;;78.17;73.00;;;;;;;9.95;65.85;99156.69;5024824;28;20707;-70
2021/09/24 04:52:43;;;;;;;72.40;67.53;;;;;;;10.02;66.23;99170.38;5039330;28;20456;-70
2021/09/24 04:55:11;;;;;;;53.63;49.87;;;;;;;9.97;65.79;99180.69;5026203;28;20440;-68
2021/09/24 04:57:40;;;;;;;48.57;45.20;;;;;;;9.64;65.12;99142.53;5027617;28;20509;-68
2021/09/24 05:00:11;;;;;;;63.63;59.27;;;;;;;9.85;65.02;99185.34;5028539;28;20424;-68
2021/09/24 05:02:41;;;;;;;53.90;50.13;;;;;;;9.89;65.69;99196.63;5030132;28;20452;-67
2021/09/24 05:05:10;;;;;;;68.87;64.20;;;;;;;9.67;66.13;99170.03;5029777;28;20461;-67
2021/09/24 05:07:38;;;;;;;48.17;44.80;;;;;;;9.99;66.29;99208.22;5031576;28;20449;-68
2021/09/24 05:10:09;;;;;;;50.10;46.63;;;;;;;10.00;66.63;99214.44;5031057;28;20457;-68
2021/09/24 05:12:37;;;;;;;49.97;46.50;;;;;;;10.06;66.85;99214.72;5030889;28;20980;-68
2021/09/24 05:15:06;;;;;;;52.97;49.30;;;;;;;10.05;67.01;99217.53;5030220;28;20454;-68
2021/09/24 05:17:34;;;;;;;53.77;50.07;;;;;;;10.04;65.98;99222.06;5031166;28;20468;-68
2021/09/24 05:20:05;;;;;;;66.00;61.53;;;;;;;10.00;65.07;99223.31;5045525;28;21034;-67
2021/09/24 05:22:33;;;;;;;63.90;59.53;;;;;;;10.14;66.35;99230.13;5030144;28;20953;-68
2021/09/24 05:25:01;;;;;;;71.17;66.40;;;;;;;10.22;66.64;99246.41;5030789;28;20899;-67
2021/09/24 05:27:29;;;;;;;77.57;72.43;;;;;;;10.29;64.62;99247.53;5031273;28;20476;-68
2021/09/24 05:29:57;;;;;;;70.87;66.10;;;;;;;10.36;65.36;99255.88;5046288;28;20459;-68
2021/09/24 05:32:25;;;;;;;54.93;51.07;;;;;;;10.45;65.63;99244.31;5029321;28;20471;-68
2021/09/24 05:34:54;;;;;;;62.57;58.30;;;;;;;10.54;65.49;99254.22;5029946;28;20236;-68
2021/09/24 05:37:23;;;;;;;51.37;47.77;;;;;;;10.66;63.99;99260.28;5030641;28;20864;-68
2021/09/24 05:39:51;;;;;;;54.33;50.57;;;;;;;10.60;62.16;99264.38;5030986;28;20452;-68
2021/09/24 05:42:19;;;;;;;60.73;56.53;;;;;;;10.58;63.57;99274.41;5030423;28;20515;-67
2021/09/24 05:44:47;;;;;;;50.23;46.73;;;;;;;10.53;63.12;99276.69;5030896;28;20447;-68
2021/09/24 05:47:15;;;;;;;71.47;66.67;;;;;;;10.69;64.26;99271.59;5030404;28;20473;-68
2021/09/24 05:49:43;;;;;;;63.00;58.73;;;;;;;10.64;62.99;99281.91;5017091;28;20443;-68
2021/09/24 05:52:11;;;;;;;64.90;60.47;;;;;;;10.81;63.42;99285.72;5030330;28;20456;-67
2021/09/24 05:54:41;;;;;;;57.00;53.07;;;;;;;10.92;64.20;99290.94;5030592;28;20460;-68
2021/09/24 05:57:09;;;;;;;75.77;69.93;;;;;;;10.93;63.92;99287.28;5030209;28;20797;-68
2021/09/24 05:59:37;;;;;;;66.27;61.33;;;;;;;11.04;63.63;99292.50;5030485;28;20444;-68
2021/09/24 06:02:06;;;;;;;58.20;54.17;;;;;;;11.12;62.29;99289.94;5029884;28;20459;-67
2021/09/24 06:04:34;;;;;;;57.73;53.73;;;;;;;11.27;61.61;99306.47;5030535;28;20559;-68
2021/09/24 06:07:03;;;;;;;58.87;54.80;;;;;;;11.43;62.17;99304.03;5028731;28;20502;-68
2021/09/24 06:09:31;;;;;;;52.53;48.87;;;;;;;11.47;60.28;99299.22;5030412;28;20460;-68
2021/09/24 06:12:00;;;;;;;56.00;52.10;;;;;;;11.71;61.32;99321.09;5030700;28;20506;-68
2021/09/24 06:14:28;;;;;;;73.87;68.90;;;;;;;11.75;58.79;99318.94;5029887;28;20828;-68
2021/09/24 06:16:56;;;;;;;81.63;76.30;;;;;;;11.74;58.80;99311.88;5030185;28;20487;-68
2021/09/24 06:19:24;;;;;;;55.63;51.80;;;;;;;11.83;59.59;99337.91;5029902;28;20519;-68
2021/09/24 06:21:52;;;;;;;55.63;51.77;;;;;;;11.97;60.80;99340.16;5029944;28;20477;-68
2021/09/24 06:24:20;;;;;;;56.70;52.83;;;;;;;12.02;59.04;99337.84;5029995;28;20458;-68
2021/09/24 06:26:48;;;;;;;82.70;77.37;;;;;;;12.08;59.43;99353.41;5029960;28;20993;-68
2021/09/24 06:29:22;;;;;;;80.03;74.87;;;;;;;12.19;60.33;99346.13;5029817;28;20517;-68
2021/09/24 06:31:50;;;;;;;60.60;56.53;;;;;;;12.25;58.07;99359.00;5030044;28;20441;-68
2021/09/24 06:34:19;;;;;;;86.77;81.20;;;;;;;12.35;58.51;99367.88;5029761;28;20940;-68
2021/09/24 06:36:47;;;;;;;59.10;55.07;;;;;;;12.44;59.02;99369.66;5028966;28;20490;-69
2021/09/24 06:39:15;;;;;;;88.00;82.33;;;;;;;12.59;58.27;99373.56;5029539;28;20459;-68
2021/09/24 06:41:43;;;;;;;77.07;72.03;;;;;;;12.80;57.51;99385.91;5029709;28;20512;-69
2021/09/24 06:44:11;;;;;;;72.30;67.57;;;;;;;12.62;55.45;99359.81;5029396;28;20451;-68
2021/09/24 06:46:41;;;;;;;73.20;68.37;;;;;;;12.87;55.88;99377.09;5029574;28;20511;-68
2021/09/24 06:49:09;;;;;;;75.30;70.30;;;;;;;13.13;58.44;99384.38;5029525;28;21037;-69
2021/09/24 06:51:37;;;;;;;63.93;59.60;;;;;;;13.11;56.67;99381.84;5029635;28;20464;-68
2021/09/24 06:54:05;;;;;;;90.63;84.87;;;;;;;13.25;56.16;99391.28;5029377;28;20480;-68
2021/09/24 06:56:33;;;;;;;70.37;65.70;;;;;;;13.22;57.32;99397.84;5029536;28;20909;-68
2021/09/24 06:59:02;;;;;;;92.53;86.67;;;;;;;13.24;55.22;99403.94;5029495;28;21022;-68
2021/09/24 07:01:30;;;;;;;74.90;69.97;;;;;;;13.24;53.82;99412.00;5029056;28;20919;-68
2021/09/24 07:04:00;;;;;;;88.77;83.10;;;;;;;13.26;54.55;99393.84;5029490;28;20448;-69
2021/09/24 07:06:28;;;;;;;95.07;89.13;;;;;;;13.46;56.56;99390.94;5027815;28;20517;-69
2021/09/24 07:08:56;;;;;;;85.33;79.93;;;;;;;13.68;56.60;99398.56;5029407;28;20472;-69
2021/09/24 07:11:24;;;;;;;64.90;60.67;;;;;;;13.46;55.28;99394.50;5028850;28;20452;-66
2021/09/24 07:13:52;;;;;;;62.13;58.07;;;;;;;13.72;53.84;99418.81;5029498;28;20444;-66
2021/09/24 07:16:21;;;;;;;77.43;72.43;;;;;;;13.76;53.58;99417.50;5028747;28;20463;-69
2021/09/24 07:18:49;;;;;;;68.73;64.27;;;;;;;13.62;54.51;99424.31;5029271;28;20448;-69
2021/09/24 07:21:18;;;;;;;74.20;69.40;;;;;;;13.45;53.76;99395.50;5043696;28;20762;-69
2021/09/24 07:23:46;;;;;;;86.50;81.03;;;;;;;13.63;55.64;99417.06;5028680;28;20443;-69
2021/09/24 07:26:15;;;;;;;84.10;78.73;;;;;;;13.47;55.75;99422.31;5028653;28;20447;-69
2021/09/24 07:28:43;;;;;;;81.60;76.47;;;;;;;13.54;55.87;99429.66;5028894;28;20434;-69
2021/09/24 07:31:11;;;;;;;63.17;59.00;;;;;;;13.48;54.97;99416.78;5028547;28;20497;-69
2021/09/24 07:33:39;;;;;;;71.77;67.10;;;;;;;13.21;53.90;99379.13;5028574;28;20943;-69
2021/09/24 07:36:08;;;;;;;61.87;57.80;;;;;;;13.23;55.21;99425.66;5027373;28;20861;-69
2021/09/24 07:38:38;;;;;;;72.63;67.93;;;;;;;13.15;55.80;99391.31;5028764;28;20445;-69
2021/09/24 07:41:06;;;;;;;90.23;84.63;;;;;;;13.52;54.39;99426.25;5028431;28;20444;-69
2021/09/24 07:43:34;;;;;;;108.53;101.87;;;;;;;13.60;55.82;99438.97;5028851;28;20479;-69
2021/09/24 07:46:02;;;;;;;120.33;113.03;;;;;;;13.49;54.31;99436.53;5028994;28;20539;-68
2021/09/24 07:48:30;;;;;;;126.03;118.33;;;;;;;13.39;54.70;99436.56;5028042;28;20490;-69
2021/09/24 07:50:58;;;;;;;111.00;104.20;;;;;;;13.59;55.57;99424.63;5028392;28;20997;-69
2021/09/24 07:53:26;;;;;;;86.17;80.80;;;;;;;13.52;54.86;99434.34;5043605;28;20438;-69
2021/09/24 07:55:56;;;;;;;77.87;72.93;;;;;;;13.24;56.26;99386.91;5028708;28;20502;-69
2021/09/24 07:58:24;;;;;;;72.17;67.47;;;;;;;13.22;54.34;99407.78;5028220;28;20451;-69
2021/09/24 08:00:52;;;;;;;91.63;85.90;;;;;;;13.43;56.52;99442.50;5028464;28;20498;-69
2021/09/24 08:03:20;;;;;;;101.10;94.83;;;;;;;13.32;55.10;99452.53;5014716;28;21114;-69
2021/09/24 08:05:48;;;;;;;68.63;64.13;;;;;;;13.35;54.30;99452.22;5027508;28;20860;-69
2021/09/24 08:08:16;;;;;;;66.87;62.43;;;;;;;13.32;54.88;99454.38;5027064;28;21107;-66
2021/09/24 08:10:45;;;;;;;65.43;61.07;;;;;;;13.41;55.74;99449.91;5026973;28;20456;-69
2021/09/24 08:13:14;;;;;;;66.70;62.30;;;;;;;13.33;56.32;99456.91;5027834;28;20443;-69
2021/09/24 08:15:43;;;;;;;65.80;61.50;;;;;;;13.17;55.69;99426.22;5028226;28;20505;-69
2021/09/24 08:18:12;;;;;;;92.07;86.23;;;;;;;13.36;54.56;99461.16;5027997;28;20456;-68
2021/09/24 08:20:40;;;;;;;74.73;69.93;;;;;;;13.43;56.41;99464.06;5028109;28;20985;-68
2021/09/24 08:23:09;;;;;;;65.80;61.50;;;;;;;13.38;56.70;99431.34;5027694;28;20452;-69
2021/09/24 08:25:37;;;;;;;68.23;63.77;;;;;;;13.54;55.48;99474.66;5028118;28;20450;-68
2021/09/24 08:28:06;;;;;;;66.97;62.57;;;;;;;13.58;56.47;99467.94;5027771;28;20689;-68
2021/09/24 08:30:36;;;;;;;68.67;64.23;;;;;;;13.55;55.67;99495.22;5026908;28;20470;-69
2021/09/24 08:33:04;;;;;;;86.93;81.47;;;;;;;13.49;56.54;99475.13;5028012;28;20430;-68
2021/09/24 08:35:33;;;;;;;68.40;63.97;;;;;;;13.39;54.94;99490.50;5028295;28;20473;-68
2021/09/24 08:38:01;;;;;;;62.40;58.27;;;;;;;13.35;56.19;99489.13;5032220;28;20805;-68
2021/09/24 08:40:31;;;;;;;82.10;76.87;;;;;;;13.45;55.98;99497.97;5031475;28;20455;-68
2021/09/24 08:43:00;;;;;;;70.40;65.80;;;;;;;13.31;55.81;99502.06;5032234;28;20511;-69
2021/09/24 08:45:31;;;;;;;82.13;76.97;;;;;;;13.30;57.14;99505.75;5031855;28;20461;-68
2021/09/24 08:48:03;;;;;;;95.43;89.53;;;;;;;13.34;57.71;99496.38;5031788;28;20479;-69
2021/09/24 08:50:33;;;;;;;95.10;89.20;;;;;;;13.27;56.07;99502.53;5031982;28;20942;-69
2021/09/24 08:53:02;;;;;;;87.57;81.93;;;;;;;13.31;56.73;99504.75;5031783;28;20449;-68
2021/09/24 08:55:30;;;;;;;85.17;79.80;;;;;;;13.32;57.33;99481.34;5032127;28;20451;-69
2021/09/24 08:57:59;;;;;;;112.43;105.53;;;;;;;13.43;56.76;99499.97;5031141;28;20462;-69
2021/09/24 09:00:28;;;;;;;144.70;136.00;;;;;;;13.53;57.16;99503.47;5031709;28;21042;-68
2021/09/24 09:03:02;;;;;;;138.00;129.70;;;;;;;13.48;56.52;99511.19;5046972;28;20453;-67
2021/09/24 09:05:35;;;;;;;159.60;150.20;;;;;;;13.43;57.07;99509.94;5031328;28;20485;-67
2021/09/24 09:08:10;;;;;;;165.90;156.10;;;;;;;13.46;57.04;99510.47;5031521;28;20489;-67
2021/09/24 09:10:40;;;;;;;146.77;137.97;;;;;;;13.36;56.95;99507.84;5031601;28;20461;-67
2021/09/24 09:13:10;;;;;;;122.23;114.83;;;;;;;13.41;55.90;99528.09;5031172;28;20446;-67
2021/09/24 09:15:39;;;;;;;136.07;127.87;;;;;;;13.53;57.09;99533.16;5031482;28;20444;-67
2021/09/24 09:18:18;;;;;;;130.67;122.80;;;;;;;13.61;56.41;99535.06;5031173;28;20463;-67
2021/09/24 09:20:48;;;;;;;151.30;142.30;;;;;;;13.54;57.19;99502.47;5031389;28;20471;-67
2021/09/24 09:23:18;;;;;;;154.60;145.30;;;;;;;13.74;56.90;99527.44;5030970;28;20833;-67
2021/09/24 09:25:49;;;;;;;165.10;155.33;;;;;;;13.71;56.02;99532.28;5031392;28;20452;-67
2021/09/24 09:28:27;;;;;;;164.60;154.80;;;;;;;13.76;55.01;99536.22;5028798;28;20487;-67
2021/09/24 09:30:56;;;;;;;107.10;100.57;;;;;;;13.87;55.73;99545.97;5031408;28;20459;-67
2021/09/24 09:33:26;;;;;;;86.53;81.00;;;;;;;13.81;56.82;99542.03;5030683;28;20455;-67
2021/09/24 09:35:56;;;;;;;89.10;83.57;;;;;;;13.97;56.63;99528.66;5031179;28;20457;-67
2021/09/24 09:38:27;;;;;;;119.90;112.60;;;;;;;13.89;55.24;99533.16;5030657;28;20448;-67
2021/09/24 09:40:58;;;;;;;113.67;106.70;;;;;;;13.84;54.95;99538.19;5030830;28;20555;-67
2021/09/24 09:43:31;;;;;;;103.17;96.70;;;;;;;13.95;56.25;99533.38;5030883;28;20975;-67
2021/09/24 09:46:00;;;;;;;95.43;89.47;;;;;;;14.03;56.73;99539.84;5030803;28;20447;-67
2021/09/24 09:48:30;;;;;;;98.93;92.87;;;;;;;14.04;55.82;99549.63;5030512;28;20484;-67
2021/09/24 09:50:58;;;;;;;89.70;84.10;;;;;;;14.17;54.82;99544.69;5030941;28;20461;-67
2021/09/24 09:53:27;;;;;;;103.67;97.10;;;;;;;14.16;55.33;99540.31;5030435;28;20460;-67
2021/09/24 09:55:59;;;;;;;71.67;67.10;;;;;;;14.31;55.42;99541.41;5029893;28;20687;-68
2021/09/24 09:58:31;;;;;;;62.60;58.53;;;;;;;14.39;54.04;99536.09;5030718;28;20825;-67
2021/09/24 10:01:06;;;;;;;82.57;77.10;;;;;;;14.41;54.01;99544.03;5030864;28;20491;-67
2021/09/24 10:03:38;;;;;;;76.83;71.93;;;;;;;14.31;55.59;99514.41;5030997;28;20473;-67
2021/09/24 10:06:21;;;;;;;70.13;65.63;;;;;;;14.54;55.05;99555.31;5030388;28;20463;-67
2021/09/24 10:08:52;;;;;;;73.47;68.77;;;;;;;14.61;55.45;99559.06;5030274;28;20496;-67
2021/09/24 10:11:20;;;;;;;98.23;92.13;;;;;;;14.77;54.16;99552.91;5030135;28;20782;-66
2021/09/24 10:13:57;;;;;;;73.03;68.30;;;;;;;14.59;54.75;99521.38;5030466;28;20448;-67
2021/09/24 10:16:28;;;;;;;88.77;83.17;;;;;;;14.96;55.63;99547.25;5029786;28;20487;-67
2021/09/24 10:18:57;;;;;;;68.63;64.10;;;;;;;15.01;53.66;99555.75;5030748;28;20823;-67
2021/09/24 10:21:30;;;;;;;80.67;75.47;;;;;;;15.07;54.75;99549.69;5029768;28;20510;-67
2021/09/24 10:23:59;;;;;;;118.67;111.40;;;;;;;15.15;53.58;99563.25;5030335;28;20510;-68
2021/09/24 10:26:31;;;;;;;101.33;95.03;;;;;;;15.33;55.72;99570.44;5026918;28;20577;-67
2021/09/24 10:29:02;;;;;;;71.30;66.67;;;;;;;15.39;55.10;99569.78;5028420;28;20489;-67
2021/09/24 10:31:35;;;;;;;68.37;63.93;;;;;;;15.30;53.59;99578.84;5045016;28;20467;-67
2021/09/24 10:34:06;;;;;;;69.97;65.43;;;;;;;15.26;53.21;99583.72;5030032;28;20481;-67
2021/09/24 10:36:45;;;;;;;86.37;80.93;;;;;;;15.27;53.82;99584.59;5030238;28;20508;-67
2021/09/24 10:39:33;;;;;;;81.00;75.80;;;;;;;15.27;53.97;99592.69;5028009;28;20458;-68
2021/09/24 10:42:22;;;;;;;96.13;90.13;;;;;;;15.39;54.96;99588.72;5029984;28;20966;-67
2021/09/24 10:45:05;;;;;;;103.97;97.50;;;;;;;15.39;51.51;99597.66;5029846;28;20531;-67
2021/09/24 10:48:07;;;;;;;107.53;100.87;;;;;;;15.41;53.06;99582.13;5029741;28;20941;-67
2021/09/24 10:51:05;;;;;;;140.57;131.97;;;;;;;15.62;53.68;99580.88;5029664;28;20497;-67
2021/09/24 10:53:46;;;;;;;116.30;109.03;;;;;;;15.56;52.04;99566.09;5029786;28;20482;-67
2021/09/24 10:56:29;;;;;;;104.13;97.57;;;;;;;15.19;51.36;99528.59;5027308;28;20953;-67
2021/09/24 10:58:59;;;;;;;99.93;93.60;;;;;;;15.51;52.69;99574.69;5028881;28;20492;-67
2021/09/24 11:01:36;;;;;;;121.70;114.13;;;;;;;15.61;52.65;99585.44;5028980;28;20556;-67
2021/09/24 11:04:14;;;;;;;107.07;100.33;;;;;;;15.68;53.88;99591.88;5029452;28;20492;-67
2021/09/24 11:06:47;;;;;;;121.70;114.13;;;;;;;15.60;51.76;99602.66;5015866;28;20462;-67
2021/09/24 11:09:17;;;;;;;135.77;127.40;;;;;;;15.81;53.23;99605.78;5029043;28;20555;-68
2021/09/24 11:11:47;;;;;;;147.97;138.90;;;;;;;15.90;52.36;99600.38;5027794;28;20513;-68
2021/09/24 11:14:34;;;;;;;142.77;133.87;;;;;;;15.83;50.39;99602.91;5029205;28;20458;-67
2021/09/24 11:17:05;;;;;;;166.60;156.57;;;;;;;16.07;53.12;99612.94;5029698;28;20833;-68
2021/09/24 11:19:36;;;;;;;157.33;147.77;;;;;;;16.25;53.00;99610.94;5044544;28;20432;-67
2021/09/24 11:22:09;;;;;;;107.87;100.93;;;;;;;16.37;52.23;99604.16;5029656;28;20447;-67
2021/09/24 11:24:39;;;;;;;134.17;125.80;;;;;;;16.43;50.06;99589.94;5028137;28;20825;-67
2021/09/24 11:27:11;;;;;;;144.07;135.17;;;;;;;16.66;49.12;99592.81;5015301;28;20436;-67